Time;durP1;ratioP1;P1;durP2;ratioP2;P2;SDS_P1;SDS_P2;PMS_P1;PMS_P2;Temp;Humidity;BMP_temperature;BMP_pressure;BME280_temperature;BME280_humidity;BME280_pressure;Samples;Min_cycle;Max_cycle;Signal;HPM_P1;HPM_P2
2023/06/24 00:01:15;;;;;;;4.87;2.63;;;;;;;26.41;47.59;98961.56;6190597;23;20154;-85
2023/06/24 00:03:40;;;;;;;6.00;3.30;;;;;;;26.38;47.79;98961.94;6190471;23;20208;-84
2023/06/24 00:06:07;;;;;;;10.93;2.70;;;;;;;26.17;49.08;98968.03;6216762;23;20185;-85
2023/06/24 00:08:34;;;;;;;5.27;3.20;;;;;;;25.98;49.67;98960.47;6217109;23;20227;-84
2023/06/24 00:11:03;;;;;;;5.70;3.00;;;;;;;25.81;49.86;98956.28;6190450;23;20153;-85
2023/06/24 00:13:29;;;;;;;7.97;3.80;;;;;;;25.86;49.59;98966.47;6216641;23;20235;-84
2023/06/24 00:15:55;;;;;;;5.20;3.10;;;;;;;25.87;49.50;98966.28;6216725;23;20145;-84
2023/06/24 00:18:24;;;;;;;6.00;2.60;;;;;;;25.79;50.21;98965.50;6216621;23;20177;-85
2023/06/24 00:20:49;;;;;;;5.77;3.63;;;;;;;25.63;50.57;98967.31;6190493;23;20149;-84
2023/06/24 00:23:20;;;;;;;5.13;2.83;;;;;;;25.46;50.87;98959.56;6216626;23;20565;-84
2023/06/24 00:25:46;;;;;;;6.03;3.27;;;;;;;25.17;51.38;98946.00;6216614;23;20141;-84
2023/06/24 00:28:11;;;;;;;5.73;3.00;;;;;;;24.94;52.11;98941.44;6216567;23;20161;-84
2023/06/24 00:30:36;;;;;;;6.00;2.80;;;;;;;24.92;52.26;98940.78;6216589;23;20569;-84
2023/06/24 00:33:02;;;;;;;5.97;3.20;;;;;;;25.03;52.22;98929.66;6216551;23;20150;-85
2023/06/24 00:35:28;;;;;;;6.83;3.30;;;;;;;25.07;52.32;98937.34;6190626;23;20486;-85
2023/06/24 00:37:57;;;;;;;7.40;3.10;;;;;;;25.09;52.20;98940.69;6216389;23;20232;-84
2023/06/24 00:40:23;;;;;;;5.70;3.30;;;;;;;25.09;52.50;98941.53;6216331;23;20142;-84
2023/06/24 00:42:49;;;;;;;5.77;2.87;;;;;;;25.15;52.03;98950.72;6216434;23;20221;-84
2023/06/24 00:45:17;;;;;;;6.23;3.43;;;;;;;25.22;51.88;98952.50;6190209;23;20150;-84
2023/06/24 00:47:43;;;;;;;6.03;3.73;;;;;;;25.26;51.64;98950.31;6216725;23;20348;-84
2023/06/24 00:50:11;;;;;;;7.20;3.40;;;;;;;25.24;51.53;98945.09;6189233;23;20154;-84
2023/06/24 00:52:42;;;;;;;5.53;3.50;;;;;;;25.19;51.56;98943.97;6216338;23;20174;-84
2023/06/24 00:55:08;;;;;;;5.40;3.07;;;;;;;25.00;51.91;98943.41;6216615;23;20130;-84
2023/06/24 00:57:33;;;;;;;7.47;2.83;;;;;;;24.98;52.50;98940.06;6216137;23;20182;-84
2023/06/24 00:59:59;;;;;;;5.30;3.13;;;;;;;24.90;53.76;98948.16;6189940;23;20158;-84
2023/06/24 01:02:27;;;;;;;6.80;3.50;;;;;;;24.87;52.98;98932.41;6216220;23;20188;-84
2023/06/24 01:04:53;;;;;;;9.73;3.63;;;;;;;24.72;54.08;98936.00;6216543;23;20146;-84
2023/06/24 01:07:20;;;;;;;5.57;3.17;;;;;;;24.54;54.46;98933.56;6189959;23;20150;-84
2023/06/24 01:09:45;;;;;;;6.93;3.27;;;;;;;24.37;54.46;98934.66;6189775;23;20228;-84
2023/06/24 01:12:11;;;;;;;5.93;3.20;;;;;;;24.17;54.62;98926.16;6216873;23;20181;-84
2023/06/24 01:14:36;;;;;;;6.03;3.47;;;;;;;24.16;55.07;98929.81;6216091;23;20574;-84
2023/06/24 01:17:24;;;;;;;6.67;3.53;;;;;;;24.23;55.43;98927.31;6191202;23;20157;-84
2023/06/24 01:19:58;;;;;;;6.67;3.37;;;;;;;24.26;55.25;98930.50;6216350;23;20562;-84
2023/06/24 01:22:35;;;;;;;5.60;3.27;;;;;;;24.31;55.58;98930.81;6216450;23;20175;-84
2023/06/24 01:25:00;;;;;;;6.90;3.20;;;;;;;24.28;55.58;98930.31;6216026;23;20177;-84
2023/06/24 01:27:41;;;;;;;9.10;3.80;;;;;;;24.24;55.94;98935.16;6216019;23;20168;-84
2023/06/24 01:30:09;;;;;;;8.17;3.23;;;;;;;24.23;55.82;98932.66;6216348;23;20195;-84
2023/06/24 01:32:44;;;;;;;6.77;3.23;;;;;;;24.26;55.74;98924.28;6189670;23;20168;-84
2023/06/24 01:35:21;;;;;;;5.13;3.07;;;;;;;24.28;56.12;98935.66;6216319;23;20561;-84
2023/06/24 01:37:51;;;;;;;8.30;3.47;;;;;;;24.32;55.67;98936.97;6215528;23;20192;-84
2023/06/24 01:40:32;;;;;;;7.90;3.87;;;;;;;24.22;56.41;98931.81;6215842;23;20166;-84
2023/06/24 01:43:00;;;;;;;7.00;4.00;;;;;;;24.19;55.72;98932.16;6215739;23;20138;-84
2023/06/24 01:45:34;;;;;;;7.07;3.10;;;;;;;24.15;55.71;98932.69;6215834;23;20146;-84
2023/06/24 01:48:04;;;;;;;6.77;4.00;;;;;;;24.07;56.35;98940.72;6215790;23;20134;-84
2023/06/24 01:50:33;;;;;;;7.60;4.13;;;;;;;23.98;56.62;98939.06;6216156;23;20219;-84
2023/06/24 01:53:01;;;;;;;6.40;3.47;;;;;;;23.92;56.57;98939.75;6189528;23;20196;-84
2023/06/24 01:55:28;;;;;;;8.30;3.80;;;;;;;23.84;57.03;98932.56;6216086;23;20153;-84
2023/06/24 01:57:57;;;;;;;7.93;3.50;;;;;;;23.79;57.73;98938.41;6215690;23;20178;-84
2023/06/24 02:00:25;;;;;;;7.47;4.43;;;;;;;23.77;58.34;98947.59;6215493;23;20145;-84
2023/06/24 02:02:53;;;;;;;5.17;3.00;;;;;;;23.77;58.25;98932.38;6189096;23;20486;-84
2023/06/24 02:05:20;;;;;;;8.03;4.10;;;;;;;23.71;58.09;98941.09;6216044;23;20157;-84
2023/06/24 02:07:49;;;;;;;11.50;3.80;;;;;;;23.68;58.95;98946.78;6165297;23;20176;-84
2023/06/24 02:10:17;;;;;;;5.67;3.10;;;;;;;23.71;58.69;98946.47;6189311;23;20641;-84
2023/06/24 02:12:46;;;;;;;9.10;3.27;;;;;;;23.61;58.86;98956.47;6189448;23;20149;-84
2023/06/24 02:15:14;;;;;;;5.57;2.93;;;;;;;23.46;59.47;98958.16;6215684;23;20145;-84
2023/06/24 02:17:42;;;;;;;7.80;3.40;;;;;;;23.31;59.82;98957.09;6215658;23;20181;-84
2023/06/24 02:20:10;;;;;;;6.27;3.50;;;;;;;23.32;59.94;98953.44;6188740;23;20154;-83
2023/06/24 02:22:40;;;;;;;5.80;3.17;;;;;;;23.37;59.53;98961.84;6185520;23;20228;-84
2023/06/24 02:25:08;;;;;;;6.57;3.77;;;;;;;23.32;60.10;98963.28;6212246;23;20979;-84
2023/06/24 02:27:36;;;;;;;8.63;3.77;;;;;;;23.17;60.09;98963.09;6218236;23;20193;-84
2023/06/24 02:30:05;;;;;;;6.70;3.33;;;;;;;23.17;59.78;98963.09;6215448;23;20169;-84
2023/06/24 02:32:32;;;;;;;6.73;4.10;;;;;;;23.21;59.84;98959.94;6215628;23;20207;-84
2023/06/24 02:34:59;;;;;;;6.20;3.53;;;;;;;23.25;60.05;98963.09;6188874;23;20150;-84
2023/06/24 02:37:26;;;;;;;6.47;4.20;;;;;;;23.25;59.76;98963.09;6215296;23;20173;-84
2023/06/24 02:39:52;;;;;;;6.77;4.03;;;;;;;23.16;60.20;98966.78;6215522;23;20483;-84
2023/06/24 02:42:19;;;;;;;6.83;3.70;;;;;;;23.11;60.44;98963.75;6215382;23;20150;-84
2023/06/24 02:44:46;;;;;;;5.63;3.30;;;;;;;23.07;60.10;98965.91;6188956;23;20149;-84
2023/06/24 02:47:15;;;;;;;6.83;3.70;;;;;;;23.11;60.46;98966.44;6215079;23;20227;-84
2023/06/24 02:49:46;;;;;;;6.07;3.47;;;;;;;23.15;60.39;98963.25;6215316;23;20293;-85
2023/06/24 02:52:17;;;;;;;7.17;3.37;;;;;;;23.12;60.38;98963.59;6215361;23;20153;-85
2023/06/24 02:54:44;;;;;;;9.70;4.10;;;;;;;23.08;60.57;98969.44;6215560;23;20146;-85
2023/06/24 02:57:15;;;;;;;7.67;4.50;;;;;;;23.08;60.09;98970.28;6215020;23;20150;-84
2023/06/24 02:59:42;;;;;;;5.37;3.27;;;;;;;23.07;60.34;98979.28;6215070;23;20161;-84
2023/06/24 03:02:12;;;;;;;6.73;3.77;;;;;;;23.04;60.43;98973.41;6215184;23;20239;-84
2023/06/24 03:04:39;;;;;;;6.63;3.60;;;;;;;22.97;61.10;98975.91;6215490;23;20165;-84
2023/06/24 03:07:06;;;;;;;6.87;3.43;;;;;;;22.93;61.57;98979.09;6215012;23;20634;-84
2023/06/24 03:09:34;;;;;;;7.43;3.67;;;;;;;22.90;61.53;98982.09;6215105;23;20177;-84
2023/06/24 03:12:01;;;;;;;9.20;3.73;;;;;;;22.94;61.27;98983.41;6215428;23;20146;-84
2023/06/24 03:14:27;;;;;;;5.63;3.70;;;;;;;22.94;61.32;98986.09;6216148;23;20157;-84
2023/06/24 03:16:54;;;;;;;12.00;4.00;;;;;;;22.92;61.95;98983.59;6216815;23;20521;-84
2023/06/24 03:19:21;;;;;;;10.37;3.70;;;;;;;22.86;62.16;98978.88;6217170;23;20173;-84
2023/06/24 03:21:47;;;;;;;7.73;4.23;;;;;;;22.87;62.35;98979.72;6217331;23;20146;-85
2023/06/24 03:24:17;;;;;;;7.43;3.97;;;;;;;22.94;62.37;98970.06;6190509;23;20164;-85
2023/06/24 03:26:44;;;;;;;6.93;4.20;;;;;;;22.96;61.63;98989.44;6217310;23;20161;-85
2023/06/24 03:29:11;;;;;;;7.73;4.37;;;;;;;22.97;61.92;98978.59;6216646;23;20190;-85
2023/06/24 03:31:43;;;;;;;5.93;3.30;;;;;;;23.05;61.54;98988.47;6216745;23;20162;-85
2023/06/24 03:34:10;;;;;;;7.57;4.30;;;;;;;23.11;61.32;98993.19;6216439;23;20543;-85
2023/06/24 03:36:42;;;;;;;8.20;4.60;;;;;;;23.16;61.10;98996.19;6216788;23;20578;-85
2023/06/24 03:39:08;;;;;;;6.57;3.90;;;;;;;23.16;61.66;98996.19;6216613;23;20602;-84
2023/06/24 03:41:35;;;;;;;7.13;3.67;;;;;;;23.14;62.41;99004.38;6190020;23;20660;-85
2023/06/24 03:44:02;;;;;;;10.37;4.20;;;;;;;23.16;62.26;98997.03;6190298;23;20154;-84
2023/06/24 03:46:32;;;;;;;7.77;4.40;;;;;;;23.19;62.50;98993.19;6216804;23;20173;-85
2023/06/24 03:49:00;;;;;;;7.07;4.10;;;;;;;23.16;62.67;99001.53;6190308;23;20157;-85
2023/06/24 03:51:26;;;;;;;12.33;4.80;;;;;;;23.13;62.28;98994.69;6216769;23;20146;-85
2023/06/24 03:53:53;;;;;;;9.93;5.17;;;;;;;23.18;61.84;99002.22;6190092;23;20530;-85
2023/06/24 03:56:20;;;;;;;8.50;4.97;;;;;;;23.20;62.17;99013.56;6190049;23;20490;-85
2023/06/24 03:58:46;;;;;;;11.83;5.10;;;;;;;23.20;62.13;99002.88;6217166;23;20184;-84
2023/06/24 04:01:13;;;;;;;10.70;4.93;;;;;;;23.21;62.13;99001.88;6216760;23;20146;-85
2023/06/24 04:03:40;;;;;;;8.17;5.13;;;;;;;23.21;62.05;99012.59;6215557;23;20162;-85
2023/06/24 04:06:06;;;;;;;13.53;5.20;;;;;;;23.24;62.62;99018.41;6190152;23;20149;-85
2023/06/24 04:08:33;;;;;;;10.57;4.53;;;;;;;23.34;62.09;99014.78;6190595;23;20164;-85
2023/06/24 04:11:00;;;;;;;10.10;4.90;;;;;;;23.41;62.35;99018.50;6190345;23;20165;-84
2023/06/24 04:13:27;;;;;;;9.83;4.87;;;;;;;23.38;62.89;99014.31;6216764;23;20173;-85
2023/06/24 04:15:53;;;;;;;9.10;4.73;;;;;;;23.43;62.72;99008.47;6216207;23;20157;-85
2023/06/24 04:18:20;;;;;;;8.03;4.80;;;;;;;23.52;62.65;99016.34;6216618;23;20178;-85
2023/06/24 04:20:47;;;;;;;8.83;4.70;;;;;;;23.59;61.78;99013.84;6215990;23;20562;-84
2023/06/24 04:23:14;;;;;;;9.40;4.93;;;;;;;23.68;61.62;99008.34;6190072;23;20157;-85
2023/06/24 04:25:42;;;;;;;9.80;4.53;;;;;;;23.77;61.19;99020.72;6216368;23;20480;-85
2023/06/24 04:28:08;;;;;;;8.27;4.80;;;;;;;23.79;61.16;99020.56;6219517;23;20224;-85
2023/06/24 04:30:41;;;;;;;16.57;5.10;;;;;;;23.91;60.92;99018.38;6217177;23;20166;-85
2023/06/24 04:33:07;;;;;;;11.83;5.10;;;;;;;23.93;60.68;99022.56;6216319;23;20197;-85
2023/06/24 04:35:34;;;;;;;7.07;4.07;;;;;;;24.02;60.06;99028.75;6216492;23;20563;-85
2023/06/24 04:37:59;;;;;;;9.23;4.33;;;;;;;24.15;60.59;99023.75;6190106;23;20575;-85
2023/06/24 04:40:26;;;;;;;8.40;4.60;;;;;;;24.14;60.38;99022.06;6189953;23;20215;-85
2023/06/24 04:42:53;;;;;;;10.80;4.37;;;;;;;24.23;59.93;99010.34;6216388;23;20562;-86
2023/06/24 04:45:20;;;;;;;8.27;4.70;;;;;;;24.26;59.89;99004.66;6216277;23;20146;-85
2023/06/24 04:47:47;;;;;;;12.00;4.87;;;;;;;24.42;59.45;99012.66;6216278;23;20166;-86
2023/06/24 04:50:14;;;;;;;11.03;4.87;;;;;;;24.47;59.17;99010.31;6216675;23;20150;-86
2023/06/24 04:52:41;;;;;;;8.73;4.47;;;;;;;24.59;59.65;99006.25;6190004;23;20550;-85
2023/06/24 04:55:08;;;;;;;8.57;4.70;;;;;;;24.78;58.72;99002.31;6189929;23;20164;-86
2023/06/24 04:57:35;;;;;;;8.00;5.00;;;;;;;24.89;58.99;99008.19;6216223;23;20184;-85
2023/06/24 05:00:02;;;;;;;8.30;4.03;;;;;;;25.07;58.29;99010.59;6216576;23;20473;-86
2023/06/24 05:02:29;;;;;;;7.97;4.07;;;;;;;25.13;58.88;99004.50;6189940;23;20161;-86
2023/06/24 05:04:56;;;;;;;8.50;4.50;;;;;;;25.18;57.25;99014.75;6216115;23;20577;-86
2023/06/24 05:07:22;;;;;;;10.83;4.60;;;;;;;25.20;56.49;99005.50;6216210;23;20145;-85
2023/06/24 05:09:51;;;;;;;9.80;4.60;;;;;;;25.10;55.88;99020.16;6216838;23;20145;-85
2023/06/24 05:12:18;;;;;;;6.63;3.57;;;;;;;25.08;57.10;99019.50;6216025;23;20146;-86
2023/06/24 05:14:49;;;;;;;11.03;3.90;;;;;;;25.19;55.40;99016.41;6215947;23;20146;-85
2023/06/24 05:17:16;;;;;;;6.07;3.80;;;;;;;25.43;55.53;99011.72;6216402;23;20145;-86
2023/06/24 05:19:43;;;;;;;8.00;3.60;;;;;;;25.65;55.26;99016.28;6216453;23;20150;-86
2023/06/24 05:22:10;;;;;;;7.90;3.90;;;;;;;25.87;54.46;99017.31;6216367;23;20150;-86
2023/06/24 05:24:36;;;;;;;7.57;4.00;;;;;;;26.02;53.46;99022.75;6190428;23;20157;-86
2023/06/24 05:27:06;;;;;;;6.67;3.63;;;;;;;26.20;53.49;99020.59;6215725;23;20228;-86
2023/06/24 05:29:34;;;;;;;6.77;3.33;;;;;;;26.26;52.40;99016.34;6213352;23;20162;-86
2023/06/24 05:32:03;;;;;;;9.53;4.43;;;;;;;26.35;51.96;99026.81;6215521;23;20594;-86
2023/06/24 05:34:30;;;;;;;7.50;3.40;;;;;;;26.48;51.39;99023.47;6216105;23;20157;-86
2023/06/24 05:36:58;;;;;;;11.83;4.00;;;;;;;26.63;52.73;99027.84;6188956;23;20162;-86
2023/06/24 05:39:25;;;;;;;8.55;4.13;;;;;;;26.70;52.20;99041.41;6189114;23;20203;-86
2023/06/24 05:41:51;;;;;;;9.00;4.43;;;;;;;26.78;52.54;99038.66;6216185;23;20225;-86
2023/06/24 05:44:18;;;;;;;8.03;3.97;;;;;;;26.81;50.80;99044.47;6215708;23;20211;-86
2023/06/24 05:46:45;;;;;;;6.65;3.78;;;;;;;26.97;51.26;99037.22;6215430;23;20149;-86
2023/06/24 05:49:12;;;;;;;10.23;4.13;;;;;;;26.91;49.29;99033.44;6215491;23;20478;-85
2023/06/24 05:51:39;;;;;;;7.97;4.53;;;;;;;26.89;52.36;99040.84;6215411;23;20238;-86
2023/06/24 05:54:05;;;;;;;8.07;4.03;;;;;;;27.13;50.82;99043.25;6215318;23;20552;-86
2023/06/24 05:56:32;;;;;;;6.45;3.88;;;;;;;27.27;50.04;99044.25;6215633;23;20276;-86
2023/06/24 05:58:59;;;;;;;8.02;3.55;;;;;;;27.28;51.64;99043.25;6215382;23;20639;-86
2023/06/24 06:01:25;;;;;;;6.55;3.65;;;;;;;27.39;50.46;99038.22;6215246;23;20164;-87
2023/06/24 06:03:52;;;;;;;6.13;3.53;;;;;;;27.46;49.69;99035.59;6215496;23;20145;-86
2023/06/24 06:06:19;;;;;;;7.05;4.05;;;;;;;27.64;49.19;99045.94;6215426;23;20150;-87
2023/06/24 06:08:45;;;;;;;5.90;3.72;;;;;;;27.73;50.18;99045.63;6215080;23;20152;-86
2023/06/24 06:11:12;;;;;;;9.10;4.82;;;;;;;27.73;48.81;99040.22;6215523;23;20480;-87
2023/06/24 06:13:38;;;;;;;13.93;3.85;;;;;;;27.93;48.87;99049.34;6188729;23;20166;-86
2023/06/24 06:16:05;;;;;;;9.13;3.95;;;;;;;27.87;49.01;99047.41;6215113;23;20149;-86
2023/06/24 06:18:31;;;;;;;7.80;4.53;;;;;;;28.08;47.19;99048.47;6215459;23;20252;-87
2023/06/24 06:20:58;;;;;;;11.93;4.50;;;;;;;28.16;48.12;99041.06;6189635;23;20158;-88
2023/06/24 06:23:27;;;;;;;8.07;3.67;;;;;;;28.43;48.63;99048.31;6215306;23;20223;-87
2023/06/24 06:25:55;;;;;;;10.70;4.20;;;;;;;28.57;46.48;99039.31;6215876;23;20512;-87
2023/06/24 06:28:23;;;;;;;7.68;4.18;;;;;;;28.73;46.99;99042.75;6203934;23;20529;-87
2023/06/24 06:30:49;;;;;;;8.05;4.32;;;;;;;28.94;46.73;99048.06;6219600;23;20161;-87
2023/06/24 06:33:16;;;;;;;7.78;3.53;;;;;;;29.11;44.26;99035.91;6219411;23;20260;-87
2023/06/24 06:35:42;;;;;;;7.10;3.85;;;;;;;29.29;43.46;99038.91;6245882;23;20152;-87
2023/06/24 06:38:10;;;;;;;7.07;3.70;;;;;;;29.32;43.99;99038.50;6218961;23;20185;-87
2023/06/24 06:40:36;;;;;;;6.93;3.78;;;;;;;29.43;43.95;99040.59;6220433;23;20188;-88
2023/06/24 06:43:02;;;;;;;6.82;3.28;;;;;;;29.71;43.05;99043.19;6246459;23;20152;-88
2023/06/24 06:45:29;;;;;;;4.85;3.25;;;;;;;30.05;42.25;99036.81;6218375;23;20156;-88
2023/06/24 06:47:55;;;;;;;10.95;4.00;;;;;;;30.16;41.80;99038.91;6219720;23;20608;-88
2023/06/24 06:50:22;;;;;;;8.27;3.38;;;;;;;30.36;41.73;99037.03;6220809;23;20615;-88
2023/06/24 06:52:48;;;;;;;5.90;3.15;;;;;;;30.63;40.81;99033.28;6247600;23;20149;-89
2023/06/24 06:55:15;;;;;;;5.32;3.47;;;;;;;30.90;39.69;99040.28;6220337;23;20581;-88
2023/06/24 06:57:42;;;;;;;11.20;3.22;;;;;;;31.21;40.24;99042.25;6247471;23;20231;-88
2023/06/24 07:00:08;;;;;;;6.40;3.55;;;;;;;31.35;39.73;99038.47;6247892;23;20502;-88
2023/06/24 07:02:35;;;;;;;6.68;2.83;;;;;;;31.38;38.41;99031.78;6220901;23;20161;-88
2023/06/24 07:05:02;;;;;;;6.03;3.38;;;;;;;31.58;38.27;99029.81;6247563;23;20152;-89
2023/06/24 07:07:28;;;;;;;5.57;3.33;;;;;;;31.71;38.56;99018.88;6221684;23;20172;-88
2023/06/24 07:09:56;;;;;;;9.00;3.70;;;;;;;31.90;38.05;99015.22;6222162;23;20522;-89
2023/06/24 07:12:23;;;;;;;10.02;3.75;;;;;;;32.09;37.91;99017.00;6247580;23;20203;-89
2023/06/24 07:14:52;;;;;;;5.63;3.78;;;;;;;31.93;38.00;99017.50;6220949;23;20167;-88
2023/06/24 07:17:19;;;;;;;6.18;3.42;;;;;;;31.90;38.92;99017.94;6220912;23;20529;-88
2023/06/24 07:19:46;;;;;;;8.50;3.83;;;;;;;32.18;38.63;99021.06;6247906;23;20218;-87
2023/06/24 07:22:13;;;;;;;5.68;3.25;;;;;;;32.31;37.91;99013.88;6220894;23;20288;-87
2023/06/24 07:24:39;;;;;;;5.57;3.55;;;;;;;32.52;37.57;99013.47;6247521;23;20149;-88
2023/06/24 07:27:06;;;;;;;6.43;3.30;;;;;;;32.74;37.43;99012.00;6247840;23;20145;-88
2023/06/24 07:29:33;;;;;;;6.97;3.92;;;;;;;32.74;38.31;99009.28;6220963;23;20164;-88
2023/06/24 07:32:00;;;;;;;6.85;4.18;;;;;;;32.99;36.85;99009.22;6221157;23;20179;-88
2023/06/24 07:34:26;;;;;;;9.93;3.85;;;;;;;33.20;37.19;99004.16;6219896;23;20153;-88
2023/06/24 07:36:53;;;;;;;8.88;4.00;;;;;;;33.35;36.58;98996.44;6247370;23;20145;-89
2023/06/24 07:39:20;;;;;;;6.50;2.97;;;;;;;33.50;36.94;99004.16;6246820;23;20177;-89
2023/06/24 07:41:46;;;;;;;6.18;3.50;;;;;;;33.72;36.08;99002.63;6220645;23;20164;-88
2023/06/24 07:44:13;;;;;;;5.97;3.72;;;;;;;33.94;37.37;99005.63;6247840;23;20168;-89
2023/06/24 07:46:40;;;;;;;7.97;3.90;;;;;;;34.02;35.59;98999.84;6247353;23;20189;-89
2023/06/24 07:49:07;;;;;;;6.15;3.58;;;;;;;34.15;36.21;98999.66;6221809;23;20149;-89
2023/06/24 07:51:35;;;;;;;12.25;4.10;;;;;;;34.37;36.64;98991.75;6220288;23;20195;-89
2023/06/24 07:54:01;;;;;;;6.82;4.13;;;;;;;34.57;35.38;98997.66;6247192;23;20156;-89
2023/06/24 07:56:28;;;;;;;9.77;4.07;;;;;;;34.69;36.06;99005.84;6220698;23;20163;-90
2023/06/24 07:58:55;;;;;;;5.85;3.65;;;;;;;34.65;34.83;98999.19;6246990;23;20173;-89
2023/06/24 08:01:21;;;;;;;8.60;4.15;;;;;;;34.86;34.31;99012.19;6246737;23;20145;-90
2023/06/24 08:03:48;;;;;;;7.97;3.80;;;;;;;35.01;35.17;99009.81;6246813;23;20224;-90
2023/06/24 08:06:15;;;;;;;8.73;4.45;;;;;;;35.14;34.14;99009.56;6247090;23;20203;-90
2023/06/24 08:08:41;;;;;;;8.73;4.20;;;;;;;35.28;34.22;99005.47;6220443;23;20149;-91
2023/06/24 08:11:08;;;;;;;6.97;4.03;;;;;;;35.13;34.99;99014.19;6220332;23;20249;-90
2023/06/24 08:13:35;;;;;;;5.35;3.58;;;;;;;34.96;34.81;99021.41;6220102;23;20555;-90
2023/06/24 08:16:02;;;;;;;9.13;3.88;;;;;;;35.06;34.83;99024.38;6220435;23;20157;-90
2023/06/24 08:18:29;;;;;;;7.28;3.97;;;;;;;35.41;35.63;99018.81;6246964;23;20543;-90
2023/06/24 08:20:56;;;;;;;8.68;4.13;;;;;;;35.60;33.88;99017.59;6246763;23;20189;-90
2023/06/24 08:23:23;;;;;;;7.50;4.50;;;;;;;35.53;34.14;99019.66;6246947;23;20145;-91
2023/06/24 08:25:49;;;;;;;7.47;3.50;;;;;;;35.35;35.82;99027.16;6220286;23;20565;-89
2023/06/24 08:28:16;;;;;;;9.05;4.65;;;;;;;35.54;34.62;99026.75;6220183;23;20193;-90
2023/06/24 08:30:42;;;;;;;7.28;4.20;;;;;;;35.74;33.01;99024.41;6247367;23;20608;-90
2023/06/24 08:33:09;;;;;;;6.63;4.10;;;;;;;35.70;35.31;99025.94;6220087;23;20228;-89
2023/06/24 08:35:36;;;;;;;6.32;4.10;;;;;;;35.46;33.69;99023.53;6246572;23;20224;-90
2023/06/24 08:38:03;;;;;;;7.65;3.60;;;;;;;35.35;35.38;99027.16;6220231;23;20497;-90
2023/06/24 08:40:29;;;;;;;7.28;3.70;;;;;;;35.42;35.50;99020.50;6246507;23;20152;-90
2023/06/24 08:42:58;;;;;;;7.28;4.22;;;;;;;35.64;34.55;99024.19;6246399;23;20148;-90
2023/06/24 08:45:24;;;;;;;6.60;4.00;;;;;;;35.85;33.82;99022.66;6246757;23;20145;-91
2023/06/24 08:47:54;;;;;;;7.22;3.65;;;;;;;35.88;33.53;99027.63;6246689;23;20224;-89
2023/06/24 08:50:25;;;;;;;7.03;4.03;;;;;;;35.80;34.14;99017.13;6246424;23;20159;-90
2023/06/24 08:52:53;;;;;;;6.60;3.85;;;;;;;36.16;34.67;99026.78;6220231;23;20149;-90
2023/06/24 08:55:23;;;;;;;6.47;3.65;;;;;;;36.05;33.04;99023.06;6220292;23;20240;-90
2023/06/24 08:57:51;;;;;;;7.15;4.03;;;;;;;36.03;33.18;99022.50;6220737;23;20508;-90
2023/06/24 09:00:18;;;;;;;6.93;3.72;;;;;;;36.28;33.48;99017.44;6246303;23;20589;-91
2023/06/24 09:02:45;;;;;;;7.85;3.95;;;;;;;36.49;33.73;99013.13;6246535;23;20149;-89
2023/06/24 09:05:12;;;;;;;7.60;4.38;;;;;;;36.64;31.47;99005.16;6246993;23;20554;-90
2023/06/24 09:07:39;;;;;;;6.68;3.97;;;;;;;36.75;30.59;99017.88;6220051;23;20152;-92
2023/06/24 09:10:05;;;;;;;5.63;3.42;;;;;;;36.76;30.80;99011.34;6220095;23;20540;-90
2023/06/24 09:12:34;;;;;;;5.60;3.60;;;;;;;36.83;32.22;99005.69;6245896;23;20162;-91
2023/06/24 09:15:02;;;;;;;5.63;3.42;;;;;;;36.80;32.24;99003.44;6219519;23;20219;-91
2023/06/24 09:17:29;;;;;;;5.95;3.47;;;;;;;36.67;33.10;98999.19;6246226;23;20157;-90
2023/06/24 09:20:05;;;;;;;10.45;3.65;;;;;;;36.69;33.67;98993.50;6219616;23;20239;-90
2023/06/24 09:22:31;;;;;;;5.70;3.90;;;;;;;36.61;32.55;98997.47;6246642;23;20132;-89
2023/06/24 09:25:01;;;;;;;11.43;4.38;;;;;;;37.00;31.30;99000.22;6246338;23;20168;-89
2023/06/24 09:27:32;;;;;;;10.15;3.95;;;;;;;36.88;32.27;99005.75;6246425;23;20145;-90
2023/06/24 09:29:59;;;;;;;6.57;4.15;;;;;;;36.77;31.08;99004.78;6246921;23;20130;-90
2023/06/24 09:32:32;;;;;;;10.02;3.90;;;;;;;36.81;32.49;98999.66;6220021;23;20157;-90
2023/06/24 09:34:58;;;;;;;9.30;4.97;;;;;;;36.89;32.00;98996.47;6246279;23;20165;-91
2023/06/24 09:37:30;;;;;;;8.13;3.55;;;;;;;37.06;32.80;99002.72;6246190;23;20145;-91
2023/06/24 09:39:57;;;;;;;8.07;4.25;;;;;;;37.15;32.21;98993.00;6221090;23;20457;-90
2023/06/24 09:42:24;;;;;;;8.32;4.00;;;;;;;37.19;31.18;98987.84;6219102;23;20560;-91
2023/06/24 09:44:56;;;;;;;6.05;3.63;;;;;;;37.07;29.44;98987.16;6246547;23;20145;-89
2023/06/24 09:47:27;;;;;;;7.75;3.75;;;;;;;37.27;31.00;98990.13;6245691;23;20145;-90
2023/06/24 09:49:53;;;;;;;5.78;3.38;;;;;;;37.26;29.88;98980.28;6245966;23;20130;-90
2023/06/24 09:52:22;;;;;;;5.72;3.13;;;;;;;37.33;29.37;98976.28;6246360;23;20145;-91
2023/06/24 09:54:53;;;;;;;7.50;3.53;;;;;;;37.49;30.84;98980.84;6246072;23;20149;-90
2023/06/24 09:57:31;;;;;;;5.20;2.97;;;;;;;37.19;30.54;98968.72;6246120;23;20189;-90
2023/06/24 09:59:59;;;;;;;6.45;3.75;;;;;;;36.61;31.48;98967.41;6246214;23;20616;-90
2023/06/24 10:02:26;;;;;;;6.53;3.63;;;;;;;37.01;31.41;98958.13;6246288;23;20152;-90
2023/06/24 10:04:54;;;;;;;6.38;3.30;;;;;;;37.37;31.91;98960.19;6245756;23;20157;-91
2023/06/24 10:07:21;;;;;;;5.57;2.95;;;;;;;37.64;30.75;98955.53;6245150;23;20160;-90
2023/06/24 10:09:48;;;;;;;4.47;2.97;;;;;;;37.74;29.98;98950.16;6241921;23;20168;-89
2023/06/24 10:12:15;;;;;;;5.05;3.45;;;;;;;37.35;29.99;98951.38;6245534;23;20565;-91
2023/06/24 10:14:42;;;;;;;5.25;3.00;;;;;;;37.42;30.66;98947.38;6245908;23;20252;-89
2023/06/24 10:17:11;;;;;;;6.32;3.30;;;;;;;37.40;29.70;98937.75;6245739;23;20247;-89
2023/06/24 10:19:40;;;;;;;5.50;3.40;;;;;;;37.37;28.93;98935.56;6245621;23;20181;-91
2023/06/24 10:22:11;;;;;;;4.40;3.00;;;;;;;37.20;29.59;98932.94;6245786;23;20156;-91
2023/06/24 10:24:41;;;;;;;6.15;3.10;;;;;;;37.46;30.21;98925.84;6249541;23;20557;-91
2023/06/24 10:27:14;;;;;;;4.55;2.80;;;;;;;37.63;29.70;98921.06;6249526;23;20557;-92
2023/06/24 10:29:46;;;;;;;6.38;3.45;;;;;;;37.87;30.00;98919.66;6248861;23;20275;-90
2023/06/24 10:32:13;;;;;;;4.63;2.83;;;;;;;38.04;28.73;98905.81;6249184;23;20149;-90
2023/06/24 10:34:43;;;;;;;4.15;2.40;;;;;;;38.05;27.96;98908.28;6249108;23;20165;-90
2023/06/24 10:37:29;;;;;;;4.65;2.80;;;;;;;38.24;26.81;98894.16;6245967;23;20137;-90
2023/06/24 10:40:09;;;;;;;;;;;;;;;;;;;;;
2023/06/24 10:42:43;;;;;;;6.63;2.42;;;;;;;38.77;27.20;98896.66;6242559;23;20570;-91
2023/06/24 10:45:21;;;;;;;3.75;2.42;;;;;;;38.68;27.00;98895.53;6248854;23;20137;-91
2023/06/24 10:48:01;;;;;;;3.78;2.25;;;;;;;38.69;27.69;98889.75;6237675;23;20129;-91
2023/06/24 10:50:27;;;;;;;4.50;2.70;;;;;;;38.37;27.89;98885.50;6222114;23;20244;-90
2023/06/24 10:53:01;;;;;;;4.20;2.38;;;;;;;38.28;27.22;98887.91;6248754;23;20183;-93
2023/06/24 10:55:45;;;;;;;6.25;3.00;;;;;;;38.45;26.27;98884.97;6248440;23;20594;-92
2023/06/24 10:58:32;;;;;;;4.97;2.67;;;;;;;38.77;26.68;98882.97;6224299;23;20242;-93
2023/06/24 11:01:09;;;;;;;3.58;2.40;;;;;;;38.67;27.38;98871.94;6205850;23;20165;-89
2023/06/24 11:03:39;;;;;;;4.95;2.83;;;;;;;38.77;26.38;98869.25;6248355;23;20159;-89
2023/06/24 11:06:06;;;;;;;5.63;3.10;;;;;;;38.82;26.80;98869.28;6249189;23;20145;-91
2023/06/24 11:08:33;;;;;;;3.95;2.63;;;;;;;38.79;26.62;98869.81;6249030;23;20492;-93
2023/06/24 11:11:02;;;;;;;5.57;2.83;;;;;;;38.98;26.20;98867.41;6221589;23;20236;-91
2023/06/24 11:13:41;;;;;;;6.57;2.83;;;;;;;39.22;25.60;98858.44;6222995;23;20565;-92
2023/06/24 11:16:07;;;;;;;5.28;2.78;;;;;;;39.36;25.92;98857.91;6222295;23;20214;-91
2023/06/24 11:18:38;;;;;;;4.43;2.50;;;;;;;39.18;25.87;98848.22;6222824;23;20471;-91
2023/06/24 11:21:17;;;;;;;2.90;1.90;;;;;;;39.26;26.81;98845.81;6222247;23;20240;-91
2023/06/24 11:23:46;;;;;;;3.95;2.47;;;;;;;39.33;25.50;98847.47;6222544;23;20183;-91
2023/06/24 11:26:23;;;;;;;3.67;2.00;;;;;;;39.07;24.61;98847.41;6249063;23;20232;-87
2023/06/24 11:28:50;;;;;;;3.50;1.95;;;;;;;39.13;25.48;98838.09;6249160;23;20185;-90
2023/06/24 11:31:17;;;;;;;5.38;2.47;;;;;;;39.20;25.36;98840.59;6248839;23;20227;-90
2023/06/24 11:33:48;;;;;;;4.47;2.50;;;;;;;39.27;25.06;98836.50;6221807;23;20156;-88
2023/06/24 11:36:24;;;;;;;4.43;2.25;;;;;;;39.12;24.60;98830.97;6195329;23;20515;-88
2023/06/24 11:38:50;;;;;;;3.55;1.90;;;;;;;39.24;24.91;98828.81;6247721;23;20192;-87